Time;durP1;ratioP1;P1;durP2;ratioP2;P2;SDS_P1;SDS_P2;PMS_P1;PMS_P2;Temp;Humidity;BMP_temperature;BMP_pressure;BME280_temperature;BME280_humidity;BME280_pressure;Samples;Min_cycle;Max_cycle;Signal;HPM_P1;HPM_P2
2022/04/02 00:00:58;;;;;;;57.75;34.95;;;-0.80;99.90;;;;;;5013084;28;20064;-87
2022/04/02 00:03:46;;;;;;;61.28;36.75;;;-0.80;99.90;;;;;;4985865;28;20057;-84
2022/04/02 00:06:34;;;;;;;54.70;33.67;;;-0.80;99.90;;;;;;5018563;28;20050;-82
2022/04/02 00:09:22;;;;;;;59.30;36.15;;;-0.70;99.90;;;;;;4996365;28;20046;-85
2022/04/02 00:12:10;;;;;;;57.15;34.42;;;-0.70;99.90;;;;;;5004094;28;20134;-83
2022/04/02 00:14:57;;;;;;;56.63;35.28;;;-0.80;99.90;;;;;;5018210;28;20168;-84
2022/04/02 00:17:47;;;;;;;54.42;34.15;;;-0.80;99.90;;;;;;5002113;28;20470;-82
2022/04/02 00:20:37;;;;;;;52.70;33.67;;;-0.80;99.90;;;;;;5002078;28;20034;-85
2022/04/02 00:23:36;;;;;;;53.63;32.45;;;-0.80;99.90;;;;;;5004214;28;20069;-84
2022/04/02 00:26:25;;;;;;;53.03;32.17;;;-0.70;99.90;;;;;;5005666;28;20038;-83
2022/04/02 00:29:17;;;;;;;51.25;31.75;;;-0.70;99.90;;;;;;5001005;28;20108;-84
2022/04/02 00:32:06;;;;;;;48.65;30.67;;;-0.70;99.90;;;;;;5012780;28;20302;-84
2022/04/02 00:34:53;;;;;;;50.25;31.95;;;-0.70;99.90;;;;;;4990831;28;20083;-84
2022/04/02 00:37:43;;;;;;;50.92;30.90;;;-0.70;99.90;;;;;;5003024;28;20057;-84
2022/04/02 00:40:31;;;;;;;50.20;30.58;;;-0.70;99.90;;;;;;4991761;28;20046;-84
2022/04/02 00:43:26;;;;;;;47.33;30.30;;;-0.70;99.90;;;;;;5016661;28;20140;-83
2022/04/02 00:46:15;;;;;;;45.78;29.33;;;-0.70;99.90;;;;;;5008423;28;20112;-86
2022/04/02 00:49:08;;;;;;;50.10;30.48;;;-0.70;99.90;;;;;;5016577;28;20046;-82
2022/04/02 00:51:57;;;;;;;51.95;29.83;;;-0.70;99.90;;;;;;4999859;28;20349;-83
2022/04/02 00:54:52;;;;;;;48.53;30.48;;;-0.60;99.90;;;;;;5014755;28;20050;-85
2022/04/02 00:57:51;;;;;;;49.25;30.67;;;-0.60;99.90;;;;;;4987586;28;20049;-84
2022/04/02 01:00:55;;;;;;;45.72;28.77;;;-0.60;99.90;;;;;;5012057;28;20050;-84
2022/04/02 01:03:50;;;;;;;46.05;28.20;;;-0.60;99.90;;;;;;4995170;28;20058;-82
2022/04/02 01:06:42;;;;;;;53.75;30.95;;;-0.60;99.90;;;;;;5009110;28;20052;-84
2022/04/02 01:09:31;;;;;;;53.28;32.88;;;-0.70;99.90;;;;;;4999924;28;20057;-83
2022/04/02 01:12:33;;;;;;;53.15;32.78;;;-0.60;99.90;;;;;;5016432;28;20351;-84
2022/04/02 01:15:33;;;;;;;51.47;31.60;;;-0.60;99.90;;;;;;5006922;28;20042;-85
2022/04/02 01:18:25;;;;;;;59.25;34.47;;;-0.60;99.90;;;;;;4984028;28;20038;-84
2022/04/02 01:21:12;;;;;;;61.58;35.20;;;-0.60;99.90;;;;;;5015525;28;20380;-83
2022/04/02 01:24:02;;;;;;;57.20;34.30;;;-0.60;99.90;;;;;;4986122;28;20050;-83
2022/04/02 01:26:49;;;;;;;62.85;36.30;;;-0.60;99.90;;;;;;4999139;28;20203;-84
2022/04/02 01:29:37;;;;;;;60.28;36.53;;;-0.50;99.90;;;;;;5016013;28;20145;-82
2022/04/02 01:32:24;;;;;;;70.50;40.50;;;-0.50;99.90;;;;;;4999315;28;20058;-83
2022/04/02 01:35:14;;;;;;;71.22;41.28;;;-0.50;99.90;;;;;;5013307;28;20096;-83
2022/04/02 01:38:03;;;;;;;75.60;42.73;;;-0.60;99.90;;;;;;4999593;28;20062;-83
2022/04/02 01:40:54;;;;;;;79.20;45.03;;;-0.60;99.90;;;;;;4999596;28;20058;-84
2022/04/02 01:43:42;;;;;;;80.25;45.83;;;-0.60;99.90;;;;;;4981640;28;20046;-84
2022/04/02 01:46:30;;;;;;;83.88;45.38;;;-0.60;99.90;;;;;;4995084;28;20396;-84
2022/04/02 01:49:18;;;;;;;83.45;46.40;;;-0.60;99.90;;;;;;4994919;28;20060;-84
2022/04/02 01:52:05;;;;;;;89.05;46.97;;;-0.60;99.90;;;;;;5008092;28;20396;-83
2022/04/02 01:54:53;;;;;;;91.18;49.50;;;-0.60;99.90;;;;;;5020738;28;20057;-84
2022/04/02 01:57:40;;;;;;;94.60;49.95;;;-0.60;99.90;;;;;;4994936;28;20628;-83
2022/04/02 02:00:29;;;;;;;87.80;49.33;;;-0.70;99.90;;;;;;5022465;28;20039;-83
2022/04/02 02:03:17;;;;;;;92.55;51.42;;;-0.60;99.90;;;;;;5035284;28;20058;-85
2022/04/02 02:06:06;;;;;;;89.30;50.47;;;-0.70;99.90;;;;;;5034984;28;20056;-85
2022/04/02 02:08:54;;;;;;;89.60;48.10;;;-0.70;99.90;;;;;;5015744;28;20034;-84
2022/04/02 02:11:42;;;;;;;89.75;50.67;;;-0.70;99.90;;;;;;5019959;28;20053;-83
2022/04/02 02:14:29;;;;;;;87.68;49.47;;;-0.60;99.90;;;;;;5047338;23;20064;-82
2022/04/02 02:17:19;;;;;;;91.13;49.30;;;-0.60;99.90;;;;;;5066603;23;20056;-82
2022/04/02 02:20:09;;;;;;;92.13;49.08;;;-0.70;99.90;;;;;;5060053;28;20033;-82
2022/04/02 02:26:58;;;;;;;95.10;50.78;;;-0.60;99.90;;;;;;5065352;28;20032;-83
2022/04/02 02:29:49;;;;;;;86.15;48.97;;;-0.60;99.90;;;;;;5063509;28;20052;-81
2022/04/02 02:32:39;;;;;;;88.30;49.17;;;-0.60;99.90;;;;;;5042363;28;20096;-83
2022/04/02 02:38:37;;;;;;;83.45;48.13;;;-0.70;99.90;;;;;;5033595;28;20355;-82
2022/04/02 02:41:25;;;;;;;84.78;47.67;;;-0.70;99.90;;;;;;5025532;28;20077;-82
2022/04/02 02:44:13;;;;;;;84.65;48.28;;;-0.70;99.90;;;;;;5039778;28;20045;-82
2022/04/02 02:47:00;;;;;;;85.22;48.53;;;-0.70;99.90;;;;;;5056875;28;20045;-85
2022/04/02 02:49:48;;;;;;;81.80;46.45;;;-0.70;99.90;;;;;;5056051;28;20045;-85
2022/04/02 02:52:41;;;;;;;79.72;46.17;;;-0.60;99.90;;;;;;5054474;28;20045;-84
2022/04/02 02:55:28;;;;;;;78.60;47.25;;;-0.70;99.90;;;;;;5045624;28;20076;-84
2022/04/02 02:58:16;;;;;;;73.90;43.80;;;-0.70;99.90;;;;;;5051663;28;20465;-83
2022/04/02 03:01:06;;;;;;;72.45;42.22;;;-0.70;99.90;;;;;;5056697;28;20045;-84
2022/04/02 03:03:53;;;;;;;71.88;42.97;;;-0.70;99.90;;;;;;5053462;28;20056;-85
2022/04/02 03:06:41;;;;;;;75.18;43.97;;;-0.70;99.90;;;;;;5055669;28;20056;-84
2022/04/02 03:09:29;;;;;;;63.90;40.38;;;-0.70;99.90;;;;;;5055903;28;20041;-84
2022/04/02 03:12:16;;;;;;;69.15;40.83;;;-0.70;99.90;;;;;;5046843;28;20044;-82
2022/04/02 03:15:05;;;;;;;65.43;40.08;;;-0.70;99.90;;;;;;5057407;28;20095;-84
2022/04/02 03:17:53;;;;;;;67.97;38.92;;;-0.70;99.90;;;;;;5061504;28;20045;-82
2022/04/02 03:20:41;;;;;;;65.00;39.20;;;-0.70;99.90;;;;;;5041844;28;20115;-80
2022/04/02 03:23:28;;;;;;;58.58;36.63;;;-0.70;99.90;;;;;;5025951;28;20057;-84
2022/04/02 03:26:16;;;;;;;61.13;36.72;;;-0.70;99.90;;;;;;5055841;28;20060;-83
2022/04/02 03:29:05;;;;;;;55.67;35.28;;;-0.70;99.90;;;;;;5056308;28;20041;-83
2022/04/02 03:31:53;;;;;;;54.53;34.92;;;-0.70;99.90;;;;;;5041933;28;20106;-84
2022/04/02 03:34:40;;;;;;;55.13;34.17;;;-0.70;99.90;;;;;;5044814;28;20037;-82
2022/04/02 03:37:31;;;;;;;59.63;33.67;;;-0.80;99.90;;;;;;5052159;28;20127;-83
2022/04/02 03:40:21;;;;;;;54.00;34.20;;;-0.70;99.90;;;;;;5025276;28;20053;-84
2022/04/02 03:43:08;;;;;;;50.08;31.40;;;-0.80;99.90;;;;;;5053698;28;20048;-81
2022/04/02 03:49:09;;;;;;;47.78;32.03;;;-0.80;99.90;;;;;;5034313;28;20045;-83
2022/04/02 03:51:58;;;;;;;48.00;30.67;;;-0.80;99.90;;;;;;5043195;28;20053;-83
2022/04/02 03:54:46;;;;;;;49.63;30.98;;;-0.80;99.90;;;;;;5054206;28;20110;-84
2022/04/02 03:57:34;;;;;;;50.15;31.58;;;-0.80;99.90;;;;;;5049448;28;20041;-84
2022/04/02 04:00:24;;;;;;;49.83;30.27;;;-0.80;99.90;;;;;;5056208;28;20111;-82
2022/04/02 04:03:16;;;;;;;55.75;31.30;;;-0.80;99.90;;;;;;5035902;28;20108;-83
2022/04/02 04:06:04;;;;;;;53.10;30.77;;;-0.80;99.90;;;;;;5047078;28;20427;-82
2022/04/02 04:08:52;;;;;;;47.78;29.20;;;-0.90;99.90;;;;;;5035223;28;20402;-82
2022/04/02 04:11:40;;;;;;;53.70;30.23;;;-0.90;99.90;;;;;;5038984;28;20037;-83
2022/04/02 04:14:27;;;;;;;46.60;30.67;;;-1.00;99.90;;;;;;5055300;28;20048;-83
2022/04/02 04:17:16;;;;;;;47.55;28.95;;;-1.00;99.90;;;;;;5055246;28;20366;-81
2022/04/02 04:20:04;;;;;;;50.38;29.17;;;-0.90;99.90;;;;;;5058168;28;20103;-83
2022/04/02 04:22:52;;;;;;;48.00;28.95;;;-1.00;99.90;;;;;;5057782;28;20049;-81
2022/04/02 04:25:40;;;;;;;44.15;28.35;;;-1.00;99.90;;;;;;5050050;28;20056;-84
2022/04/02 04:28:28;;;;;;;41.75;26.98;;;-1.10;99.90;;;;;;5046972;28;20045;-81
2022/04/02 04:31:17;;;;;;;45.72;26.95;;;-1.10;99.90;;;;;;5035574;28;20041;-83
2022/04/02 04:34:06;;;;;;;46.63;26.33;;;-1.10;99.90;;;;;;5063465;28;20052;-83
2022/04/02 04:36:53;;;;;;;50.50;27.25;;;-1.10;99.90;;;;;;5073114;28;20041;-84
2022/04/02 04:39:42;;;;;;;50.53;27.10;;;-1.10;99.90;;;;;;5062576;28;20114;-84
2022/04/02 04:42:31;;;;;;;44.80;27.35;;;-1.10;99.90;;;;;;5047089;28;20049;-82
2022/04/02 04:45:21;;;;;;;43.75;25.08;;;-1.10;99.90;;;;;;5070193;28;20052;-83
2022/04/02 04:48:09;;;;;;;43.05;25.38;;;-1.10;99.90;;;;;;5069507;28;20041;-82
2022/04/02 04:50:59;;;;;;;40.38;24.27;;;-1.10;99.90;;;;;;5045335;28;20067;-81
2022/04/02 04:53:49;;;;;;;48.30;26.70;;;-1.20;99.90;;;;;;5061050;28;20071;-83
2022/04/02 04:56:38;;;;;;;46.95;26.27;;;-1.20;99.90;;;;;;5065342;28;20052;-83
2022/04/02 04:59:26;;;;;;;40.00;24.88;;;-1.20;99.90;;;;;;5049299;28;20049;-82
2022/04/02 05:02:19;;;;;;;43.28;23.27;;;-1.20;99.90;;;;;;5042109;28;20358;-82
2022/04/02 05:05:07;;;;;;;40.83;24.65;;;-1.20;99.90;;;;;;5041897;28;20116;-83
2022/04/02 05:08:17;;;;;;;39.03;24.30;;;-1.20;99.90;;;;;;5055245;28;20064;-82
2022/04/02 05:11:04;;;;;;;41.90;24.48;;;-1.20;99.90;;;;;;5035717;28;20103;-82
2022/04/02 05:13:55;;;;;;;42.40;25.20;;;-1.20;99.90;;;;;;5054782;28;20124;-83
2022/04/02 05:16:46;;;;;;;40.97;23.10;;;-1.10;99.90;;;;;;5021518;28;20046;-83
2022/04/02 05:19:34;;;;;;;38.72;23.67;;;-1.10;99.90;;;;;;5041052;28;20457;-83
2022/04/02 05:22:21;;;;;;;36.15;22.05;;;-1.10;99.90;;;;;;5043498;28;20335;-82
2022/04/02 05:25:10;;;;;;;35.55;22.23;;;-1.00;99.90;;;;;;5030549;28;20126;-83
2022/04/02 05:27:57;;;;;;;32.80;20.60;;;-1.00;99.90;;;;;;5033716;28;20052;-82
2022/04/02 05:30:44;;;;;;;34.03;22.33;;;-1.00;99.90;;;;;;5055077;28;20045;-82
2022/04/02 05:33:31;;;;;;;33.17;21.60;;;-1.00;99.90;;;;;;5052439;28;20125;-83
2022/04/02 05:36:27;;;;;;;31.17;21.50;;;-1.00;99.90;;;;;;5044716;28;20428;-81
2022/04/02 05:39:14;;;;;;;36.20;22.17;;;-1.00;99.90;;;;;;5036495;28;20060;-85
2022/04/02 05:46:24;;;;;;;;;;;;;;;;;;;;;
2022/04/02 05:53:42;;;;;;;31.23;20.48;;;-0.90;99.90;;;;;;4951679;29;20071;-83
2022/04/02 05:56:34;;;;;;;32.40;20.25;;;-0.80;99.90;;;;;;4940316;29;20059;-83
2022/04/02 05:59:24;;;;;;;26.90;17.65;;;-0.80;99.90;;;;;;4948898;29;20055;-82
2022/04/02 06:02:14;;;;;;;29.05;19.38;;;-0.80;99.90;;;;;;4956124;29;20047;-83
2022/04/02 06:05:08;;;;;;;27.88;19.20;;;-0.70;99.90;;;;;;4929324;29;20123;-83
2022/04/02 06:07:58;;;;;;;;;;;-0.70;99.90;;;;;;4953989;29;20057;-82
2022/04/02 06:11:06;;;;;;;26.73;18.08;;;-0.60;99.90;;;;;;4944496;29;19922;-83
2022/04/02 06:14:03;;;;;;;28.05;18.08;;;-0.50;99.90;;;;;;4940872;29;20548;-83
2022/04/02 06:17:10;;;;;;;25.55;17.20;;;-0.50;99.90;;;;;;4934600;29;20051;-82
2022/04/02 06:20:16;;;;;;;23.65;17.00;;;-0.50;99.90;;;;;;4940803;29;20055;-82
2022/04/02 06:27:22;;;;;;;19.58;15.15;;;-0.30;99.90;;;;;;5004278;28;20044;-82
2022/04/02 06:30:11;;;;;;;19.73;14.80;;;-0.20;99.90;;;;;;5050080;28;20716;-82
2022/04/02 06:33:03;;;;;;;19.60;14.82;;;-0.20;99.90;;;;;;5060709;28;20046;-83
2022/04/02 06:36:04;;;;;;;16.48;13.32;;;-0.20;99.90;;;;;;5054086;28;20049;-82
2022/04/02 06:49:42;;;;;;;11.63;9.32;;;0.10;99.90;;;;;;5469154;23;20078;-83
2022/04/02 06:52:29;;;;;;;15.57;11.98;;;0.10;98.60;;;;;;5040900;28;20021;-82
2022/04/02 07:31:46;;;;;;;15.50;10.23;;;0.30;42.60;;;;;;5085468;23;20124;-88
2022/04/02 07:34:40;;;;;;;13.40;10.80;;;0.20;43.80;;;;;;5006968;28;20100;-84
2022/04/02 07:42:33;;;;;;;14.55;10.60;;;0.20;59.90;;;;;;5009245;28;20038;-83
2022/04/02 07:45:47;;;;;;;15.82;10.50;;;0.20;69.60;;;;;;5017637;28;20054;-83
2022/04/02 07:48:37;;;;;;;14.75;10.70;;;0.20;58.20;;;;;;5007510;28;20399;-83
2022/04/02 07:55:59;;;;;;;14.80;10.63;;;0.20;63.20;;;;;;5011225;28;20034;-85
2022/04/02 08:15:34;;;;;;;14.85;10.70;;;0.30;45.90;;;;;;5005086;28;20018;-83
2022/04/02 08:18:29;;;;;;;14.68;10.50;;;0.50;60.60;;;;;;5026295;28;20046;-84
2022/04/02 08:25:29;;;;;;;14.68;8.85;;;1.00;2.30;;;;;;5379819;23;20415;-84
2022/04/02 08:41:26;;;;;;;12.75;8.23;;;0.60;1.00;;;;;;4899456;29;20041;-83
2022/04/02 08:53:20;;;;;;;12.30;8.82;;;0.50;7.80;;;;;;4888617;29;20052;-82
2022/04/02 09:04:23;;;;;;;12.40;8.90;;;0.70;1.00;;;;;;4903305;29;20048;-83
2022/04/02 09:16:10;;;;;;;10.95;9.02;;;0.90;1.00;;;;;;4909677;29;20166;-81
2022/04/02 09:20:32;;;;;;;;;;;;;;;;;;;;;
2022/04/02 09:36:16;;;;;;;17.00;10.82;;;0.80;1.00;;;;;;4886997;29;20025;-86
2022/04/02 10:08:29;;;;;;;19.33;11.73;;;0.60;1.00;;;;;;5426970;23;20046;-86
2022/04/02 10:24:40;;;;;;;18.58;12.90;;;0.60;1.00;;;;;;4936895;29;20118;-85
2022/04/02 10:27:35;;;;;;;18.08;12.65;;;0.50;1.00;;;;;;4968560;28;20042;-84
2022/04/02 10:30:25;;;;;;;16.25;12.50;;;0.50;1.00;;;;;;4982035;28;20466;-84
2022/04/02 10:33:26;;;;;;;19.27;13.13;;;0.50;1.00;;;;;;4994332;28;20061;-84
2022/04/02 10:36:17;;;;;;;18.50;12.02;;;0.80;1.00;;;;;;4977162;28;20046;-85
2022/04/02 10:39:07;;;;;;;19.10;12.25;;;1.20;1.00;;;;;;4992728;28;20054;-83
2022/04/02 10:42:02;;;;;;;13.90;11.23;;;1.30;1.00;;;;;;4984393;28;20618;-84
2022/04/02 10:45:11;;;;;;;18.35;11.63;;;1.60;99.90;;;;;;4998428;28;20042;-86
2022/04/02 10:48:09;;;;;;;16.05;12.43;;;1.60;99.90;;;;;;4997323;28;20035;-85
2022/04/02 10:51:01;;;;;;;13.98;10.75;;;1.60;99.90;;;;;;4998903;28;20137;-87
2022/04/02 10:54:07;;;;;;;13.40;10.38;;;2.00;99.90;;;;;;4998543;28;20057;-87
2022/04/02 10:56:56;;;;;;;13.73;11.13;;;1.90;10.60;;;;;;4988563;28;20065;-87
2022/04/02 10:59:58;;;;;;;19.00;11.98;;;1.60;99.90;;;;;;4981902;28;20104;-84
2022/04/02 11:02:59;;;;;;;14.82;12.35;;;1.30;99.90;;;;;;4981170;28;20046;-83
2022/04/02 11:05:59;;;;;;;15.02;10.82;;;1.20;99.90;;;;;;4978473;28;20047;-84
2022/04/02 11:08:49;;;;;;;14.43;11.25;;;1.20;99.90;;;;;;4972078;28;20607;-87
2022/04/02 11:11:43;;;;;;;15.15;11.45;;;1.40;99.90;;;;;;5003044;28;20042;-86
2022/04/02 11:14:38;;;;;;;13.13;10.68;;;1.30;99.90;;;;;;4993050;28;20043;-86
2022/04/02 11:17:46;;;;;;;18.83;11.70;;;1.20;99.90;;;;;;4981928;28;20113;-86
2022/04/02 11:20:34;;;;;;;16.52;11.15;;;1.20;99.90;;;;;;4976537;28;20066;-83
2022/04/02 11:23:55;;;;;;;17.35;11.52;;;1.30;99.90;;;;;;4986844;28;20050;-85
2022/04/02 11:26:48;;;;;;;15.07;11.90;;;1.20;99.90;;;;;;4987644;28;20181;-83
2022/04/02 11:29:46;;;;;;;16.70;11.13;;;1.20;99.90;;;;;;4978532;28;20054;-82
2022/04/02 11:32:45;;;;;;;15.13;11.45;;;1.20;99.90;;;;;;4967076;28;20050;-84
2022/04/02 11:35:45;;;;;;;14.10;11.20;;;1.20;99.90;;;;;;4993994;28;20039;-86
2022/04/02 11:38:51;;;;;;;13.27;10.38;;;1.10;99.90;;;;;;4998335;28;20376;-85
2022/04/02 11:41:44;;;;;;;16.30;12.07;;;1.20;99.90;;;;;;4984173;28;20058;-83
2022/04/02 11:44:51;;;;;;;14.43;11.63;;;1.20;99.90;;;;;;4987123;28;20050;-82
2022/04/02 11:47:52;;;;;;;12.93;10.82;;;1.50;1.00;;;;;;4986297;28;20061;-83
2022/04/02 11:50:45;;;;;;;14.75;12.15;;;1.40;99.90;;;;;;4987101;28;20050;-82
2022/04/02 11:53:38;;;;;;;18.25;12.27;;;1.10;99.90;;;;;;4995699;28;20054;-83
2022/04/02 11:56:35;;;;;;;16.88;12.45;;;0.90;99.90;;;;;;5001155;28;20054;-82
2022/04/02 11:59:26;;;;;;;19.25;12.70;;;0.80;1.00;;;;;;5000603;28;20101;-84
2022/04/02 12:02:40;;;;;;;18.02;12.05;;;0.90;1.00;;;;;;4999364;28;20387;-84
2022/04/02 12:05:47;;;;;;;16.90;12.82;;;0.80;1.00;;;;;;4974495;28;20483;-84
2022/04/02 12:08:38;;;;;;;19.75;13.07;;;0.90;1.00;;;;;;4980175;28;20046;-83
2022/04/02 12:11:25;;;;;;;18.10;12.85;;;0.90;1.00;;;;;;4998650;28;20050;-84
2022/04/02 12:14:26;;;;;;;19.30;12.98;;;1.20;1.00;;;;;;4996627;28;20363;-82
2022/04/02 12:17:15;;;;;;;17.40;12.35;;;1.80;99.90;;;;;;4983041;28;20070;-83
2022/04/02 12:20:07;;;;;;;15.40;11.48;;;2.10;59.40;;;;;;4988857;28;20039;-84
2022/04/02 12:23:21;;;;;;;12.70;9.32;;;1.70;99.90;;;;;;4999375;28;20377;-84
2022/04/02 12:26:22;;;;;;;15.25;11.02;;;1.30;99.90;;;;;;4997810;28;20074;-82
2022/04/02 12:29:19;;;;;;;18.30;11.93;;;1.00;1.00;;;;;;4987442;28;20046;-83
2022/04/02 12:32:06;;;;;;;15.52;11.90;;;1.00;1.00;;;;;;4971635;28;20448;-82
2022/04/02 12:35:08;;;;;;;16.67;11.90;;;1.20;99.90;;;;;;4980347;28;20042;-83
2022/04/02 12:38:01;;;;;;;14.13;11.25;;;1.10;1.00;;;;;;5006516;28;20042;-84
2022/04/02 12:40:57;;;;;;;15.25;12.57;;;1.00;1.00;;;;;;4988313;28;20077;-82
2022/04/02 12:43:48;;;;;;;16.73;13.48;;;0.90;1.00;;;;;;4980326;28;20058;-82
2022/04/02 12:46:51;;;;;;;20.55;13.20;;;0.60;1.00;;;;;;4996037;28;20133;-84
2022/04/02 12:49:39;;;;;;;17.95;12.93;;;0.70;1.00;;;;;;4989299;28;20047;-82
2022/04/02 12:53:04;;;;;;;17.50;13.98;;;0.90;1.00;;;;;;5004897;28;20051;-83
2022/04/02 12:56:25;;;;;;;17.45;13.60;;;0.80;1.00;;;;;;4989423;28;20046;-83
2022/04/02 12:59:21;;;;;;;19.63;14.05;;;0.70;1.00;;;;;;4994204;28;20103;-85
2022/04/02 13:02:22;;;;;;;20.08;14.80;;;0.40;1.00;;;;;;5003403;28;20061;-82
2022/04/02 13:05:14;;;;;;;23.60;17.75;;;0.40;1.00;;;;;;4997058;28;20357;-82
2022/04/02 13:08:07;;;;;;;21.60;15.85;;;0.30;1.00;;;;;;4999104;28;20046;-83
2022/04/02 13:11:01;;;;;;;22.20;16.40;;;0.40;1.00;;;;;;4997730;28;20057;-82
2022/04/02 13:14:02;;;;;;;23.23;16.23;;;0.50;1.00;;;;;;4986568;28;20077;-84
2022/04/02 13:17:20;;;;;;;24.38;17.98;;;0.50;1.00;;;;;;4985392;28;20042;-82
2022/04/02 13:20:31;;;;;;;22.17;17.13;;;0.50;1.00;;;;;;4989824;28;20043;-82
2022/04/02 13:23:37;;;;;;;22.92;16.55;;;0.60;1.00;;;;;;4991948;28;20050;-84
2022/04/02 13:26:37;;;;;;;23.92;17.30;;;0.60;1.00;;;;;;4986015;28;20046;-83
2022/04/02 13:29:28;;;;;;;21.77;16.70;;;0.90;1.00;;;;;;4995751;28;20058;-84
2022/04/02 13:32:23;;;;;;;21.15;16.48;;;1.20;1.00;;;;;;5000469;28;20460;-84
2022/04/02 13:35:50;;;;;;;19.98;14.57;;;1.30;1.00;;;;;;4989584;28;20046;-85
2022/04/02 13:39:06;;;;;;;19.77;15.43;;;1.30;1.00;;;;;;4988632;28;20083;-84
2022/04/02 13:42:21;;;;;;;24.75;16.33;;;1.40;1.00;;;;;;4986001;28;20524;-83
2022/04/02 13:45:15;;;;;;;21.25;15.38;;;1.40;99.90;;;;;;4974487;28;20053;-83
2022/04/02 13:48:06;;;;;;;21.02;14.98;;;1.50;99.90;;;;;;4991163;28;20050;-84
2022/04/02 13:51:08;;;;;;;18.60;14.77;;;1.80;99.90;;;;;;4989238;28;20054;-83
2022/04/02 13:54:05;;;;;;;13.23;10.65;;;2.10;99.90;;;;;;4995730;28;20205;-83
2022/04/02 13:56:55;;;;;;;15.35;12.80;;;2.40;1.00;;;;;;4984837;28;20133;-85
2022/04/02 14:00:15;;;;;;;18.88;12.85;;;1.90;99.90;;;;;;4992023;28;20053;-85
2022/04/02 14:03:10;;;;;;;18.73;13.40;;;1.50;99.90;;;;;;4993724;28;20154;-83
2022/04/02 14:06:18;;;;;;;18.65;13.43;;;1.30;1.00;;;;;;4979378;28;20050;-84
2022/04/02 14:09:12;;;;;;;16.73;13.15;;;1.30;1.00;;;;;;4993803;28;20106;-84
2022/04/02 14:12:09;;;;;;;19.80;14.05;;;1.40;1.00;;;;;;4987387;28;20355;-83
2022/04/02 14:15:13;;;;;;;19.85;14.85;;;1.20;1.00;;;;;;4992012;28;20042;-83
2022/04/02 14:18:06;;;;;;;21.55;14.52;;;1.20;1.00;;;;;;4990362;28;20448;-83
2022/04/02 14:21:04;;;;;;;18.35;14.45;;;1.10;1.00;;;;;;4997395;28;20050;-83
2022/04/02 14:24:03;;;;;;;21.23;15.80;;;0.90;1.00;;;;;;5000004;28;20057;-82
2022/04/02 14:27:17;;;;;;;20.42;14.75;;;0.80;1.00;;;;;;4979809;28;20073;-83
2022/04/02 14:30:13;;;;;;;21.00;14.93;;;0.90;1.00;;;;;;4991204;28;20034;-82
2022/04/02 14:33:16;;;;;;;21.50;14.40;;;0.90;1.00;;;;;;5010160;28;20047;-83
2022/04/02 14:36:27;;;;;;;20.00;15.32;;;0.90;1.00;;;;;;5012041;28;20042;-82
2022/04/02 14:39:48;;;;;;;19.65;14.48;;;1.10;1.00;;;;;;4995923;28;20111;-80
2022/04/02 14:43:29;;;;;;;20.48;14.52;;;1.10;1.00;;;;;;5006208;28;20045;-81
2022/04/02 14:46:55;;;;;;;18.70;14.27;;;1.20;99.90;;;;;;4942060;29;20047;-81
2022/04/02 14:50:24;;;;;;;18.08;14.00;;;1.10;1.00;;;;;;5233173;23;20086;-79
2022/04/02 14:54:02;;;;;;;22.55;16.00;;;1.00;1.00;;;;;;4994983;28;20043;-82
2022/04/02 14:57:27;;;;;;;21.17;15.57;;;1.10;1.00;;;;;;4981272;28;20047;-82
2022/04/02 15:00:56;;;;;;;19.52;15.40;;;1.30;1.00;;;;;;4973722;28;20063;-82
2022/04/02 15:04:21;;;;;;;21.48;16.33;;;1.20;99.90;;;;;;4982484;28;20372;-81
2022/04/02 15:07:25;;;;;;;22.60;16.60;;;0.90;1.00;;;;;;4978366;28;20055;-82
2022/04/02 15:10:28;;;;;;;23.38;16.92;;;0.70;1.00;;;;;;4968043;28;20154;-82
2022/04/02 15:13:28;;;;;;;25.65;18.98;;;0.50;1.00;;;;;;4954147;29;20076;-82
2022/04/02 15:16:32;;;;;;;26.85;20.38;;;0.30;11.00;;;;;;4970057;28;20047;-83
2022/04/02 15:19:28;;;;;;;34.15;21.70;;;0.20;30.00;;;;;;4975970;28;20109;-84
2022/04/02 15:22:28;;;;;;;26.58;20.30;;;0.40;21.30;;;;;;4982471;28;20058;-82
2022/04/02 15:25:27;;;;;;;27.50;19.95;;;0.50;11.10;;;;;;4980268;28;20150;-82
2022/04/02 15:28:38;;;;;;;27.83;20.05;;;0.40;1.00;;;;;;4967664;28;20374;-82
2022/04/02 15:31:59;;;;;;;27.23;19.75;;;0.50;11.60;;;;;;4978027;28;20273;-83
2022/04/02 15:35:01;;;;;;;29.33;20.67;;;0.40;4.30;;;;;;4974004;28;20070;-82
2022/04/02 15:37:52;;;;;;;29.85;19.92;;;0.50;16.80;;;;;;4953768;28;20038;-84
2022/04/02 15:41:04;;;;;;;29.15;19.73;;;0.40;1.00;;;;;;4944431;28;20133;-81
2022/04/02 15:43:54;;;;;;;25.50;20.20;;;0.40;1.00;;;;;;4964281;28;20055;-82
2022/04/02 15:46:42;;;;;;;32.63;20.60;;;0.30;1.00;;;;;;4963365;28;20054;-82
2022/04/02 15:49:34;;;;;;;28.52;19.95;;;0.40;1.00;;;;;;4960585;28;20476;-82
2022/04/02 15:52:25;;;;;;;28.98;20.15;;;0.30;1.00;;;;;;4952405;28;20487;-83
2022/04/02 15:55:21;;;;;;;27.10;19.80;;;0.30;1.00;;;;;;4993406;28;20052;-82
2022/04/02 15:58:08;;;;;;;35.58;20.23;;;0.30;1.00;;;;;;4979380;28;20043;-81
2022/04/02 16:01:08;;;;;;;31.27;21.30;;;0.40;10.50;;;;;;4983367;28;20372;-83
2022/04/02 16:04:21;;;;;;;30.58;21.42;;;0.30;11.10;;;;;;4977700;28;20527;-83
2022/04/02 16:07:31;;;;;;;;;;;0.40;18.70;;;;;;4987285;28;20098;-82
2022/04/02 16:10:19;;;;;;;27.00;19.58;;;0.30;26.70;;;;;;4979390;28;19922;-82
2022/04/02 16:13:22;;;;;;;28.85;19.80;;;0.20;37.60;;;;;;4978595;28;20043;-84
2022/04/02 16:16:12;;;;;;;;;;;0.30;31.20;;;;;;4976644;28;20117;-81
2022/04/02 16:19:38;;;;;;;32.60;20.17;;;0.30;35.00;;;;;;4979822;28;19934;-83
2022/04/02 16:22:29;;;;;;;36.40;21.63;;;0.20;39.20;;;;;;4986091;28;20051;-83
2022/04/02 16:25:17;;;;;;;32.78;22.23;;;0.20;40.40;;;;;;4987666;28;20058;-81
2022/04/02 16:28:06;;;;;;;29.55;21.20;;;0.10;51.50;;;;;;4988513;28;20061;-81
2022/04/02 16:31:02;;;;;;;31.83;22.88;;;0.10;45.80;;;;;;4979782;28;20043;-82
2022/04/02 16:33:55;;;;;;;33.38;21.65;;;0.10;57.50;;;;;;4976776;28;20042;-82
2022/04/02 16:36:45;;;;;;;31.63;22.10;;;0.00;49.20;;;;;;4977338;28;20129;-83
2022/04/02 16:39:41;;;;;;;36.30;21.75;;;0.00;54.50;;;;;;4947455;28;20446;-83
2022/04/02 16:42:34;;;;;;;32.63;22.45;;;-0.10;55.30;;;;;;4966256;28;20192;-81
2022/04/02 16:45:28;;;;;;;30.80;21.35;;;0.00;57.90;;;;;;4970889;28;20051;-82
2022/04/02 16:48:24;;;;;;;34.42;23.38;;;0.00;56.40;;;;;;4979053;28;20050;-82
2022/04/02 16:51:19;;;;;;;33.15;22.92;;;0.00;46.80;;;;;;4966378;28;20054;-82
2022/04/02 16:54:13;;;;;;;29.75;21.38;;;-0.10;60.00;;;;;;4967772;28;20039;-83
2022/04/02 16:57:01;;;;;;;36.13;22.83;;;-0.20;65.30;;;;;;4965314;28;20039;-83
2022/04/02 17:00:18;;;;;;;34.13;22.92;;;-0.10;81.00;;;;;;4977664;28;20089;-82
2022/04/02 17:03:07;;;;;;;37.33;23.02;;;-0.10;90.40;;;;;;4976820;28;20055;-83
2022/04/02 17:06:01;;;;;;;33.22;22.38;;;-0.10;88.80;;;;;;4949723;28;20058;-82
2022/04/02 17:08:57;;;;;;;32.97;22.15;;;-0.10;90.00;;;;;;4969335;28;20057;-82
2022/04/02 17:11:54;;;;;;;35.72;23.00;;;-0.10;91.10;;;;;;4964441;28;20070;-82
2022/04/02 17:14:42;;;;;;;35.20;23.23;;;-0.10;89.00;;;;;;4963379;28;20051;-82
2022/04/02 17:17:33;;;;;;;37.30;24.00;;;-0.20;91.20;;;;;;4962200;28;20481;-82
2022/04/02 17:20:29;;;;;;;35.20;24.10;;;-0.20;92.80;;;;;;4986560;28;20451;-83
2022/04/02 17:23:37;;;;;;;37.40;24.73;;;-0.20;95.80;;;;;;4978222;28;20137;-83
2022/04/02 17:26:26;;;;;;;37.63;23.52;;;-0.30;97.50;;;;;;4977215;28;20676;-82
2022/04/02 17:29:35;;;;;;;44.85;26.20;;;-0.40;98.40;;;;;;4977530;28;20046;-83
2022/04/02 17:32:25;;;;;;;35.92;24.70;;;-0.40;99.90;;;;;;4980848;28;20078;-81
2022/04/02 17:35:38;;;;;;;39.80;25.70;;;-0.50;99.90;;;;;;4971146;28;20365;-81
2022/04/02 17:38:30;;;;;;;39.45;25.33;;;-0.60;99.90;;;;;;4959254;28;20070;-81
2022/04/02 17:41:20;;;;;;;42.28;26.20;;;-0.60;99.90;;;;;;4967805;28;20129;-83
2022/04/02 17:44:25;;;;;;;43.95;27.02;;;-0.60;99.90;;;;;;4961046;28;20057;-81
2022/04/02 17:47:24;;;;;;;38.50;25.60;;;-0.70;99.90;;;;;;4954399;28;20047;-82
2022/04/02 17:50:19;;;;;;;39.28;25.33;;;-0.70;99.90;;;;;;4962138;28;20051;-82
2022/04/02 17:53:21;;;;;;;42.60;26.25;;;-0.80;99.90;;;;;;4957621;29;20145;-81
2022/04/02 17:56:23;;;;;;;46.25;26.00;;;-0.80;99.90;;;;;;4973353;28;20459;-81
2022/04/02 17:59:12;;;;;;;43.47;27.30;;;-0.80;99.90;;;;;;4977929;28;20062;-82
2022/04/02 18:02:10;;;;;;;53.22;28.30;;;-0.80;99.90;;;;;;4964074;28;20043;-82
2022/04/02 18:05:03;;;;;;;49.05;31.35;;;-0.80;99.90;;;;;;4976722;28;20424;-81
2022/04/02 18:07:53;;;;;;;48.60;30.92;;;-0.90;99.90;;;;;;4975760;28;20047;-81
2022/04/02 18:10:42;;;;;;;48.63;28.27;;;-0.90;99.90;;;;;;4978659;28;20074;-81
2022/04/02 18:13:55;;;;;;;45.22;29.58;;;-0.90;99.90;;;;;;4966518;28;20057;-82
2022/04/02 18:16:43;;;;;;;48.72;28.05;;;-0.90;99.90;;;;;;4984275;28;20460;-82
2022/04/02 18:19:37;;;;;;;48.17;28.58;;;-0.90;99.90;;;;;;4977146;28;20766;-81